Wainwright Airport
PAWI : now visible

Aeroporto :











RITROVATECI SU...

 
LOGIN :

Iscrizione | Disclaimer

   EN    FR    IT 

 









Sommario :    VFR   VFR Marginale   IFR   IFR Intensivo   IFR Molto Intensivo
Visibilità : 
Base nubi : 
>= 8 km
>= 3000ft
5 / 8 km
1000 / 3000 ft
1500m / 5 km
500 / 1000 ft
800 / 1500m
200 / 500 ft
< 800m
< 200 ft
Simboli :   Temporali  Nebbia  Neve Forte  Precipitazioni Forti  Vento > 20 kt






- Altitudine del aeroporto : 41 ft
- Codice IATA : AIN


PAWI - Wainwright

ULTIMO METAR :
  • 210653Z AUTO 23003KT OVC070 M28/M31 A2935 RMK SLP941 T12831311 TSNO PNO $ VIA AUTODIAL

METARs OBSOLETI :
  • 210553Z AUTO 00000KT OVC070 M28/M32 A2935 RMK SLP943 I1000 I6000 T12831317 11239 21289 56001 TSNO PNO $ VIA AUTODIAL
  • 210453Z AUTO 26004KT OVC070 M25/M28 A2935 RMK SLP942 T12501283 TSNO PNO $ VIA AUTODIAL

TAF N/A



MetMap, La meteo Aeronautica in un colpo d'occhio ! - Copyright ORBIFLY Dicembre 2007 - Disclaimer

ORBIFLY MET'MAP TEAM :

Programmazione e sviluppo : Alexandra Zaïnal
Concezione : Baudouin d'Aumeries
Aiuto per la programmazione : Marc-Olivier Méhu
Supporto tecnico e logistico : Manuel Goepfert
Aiuto per la traduzione : Arnaldo La Scala

Contatto : metmap@orbifly.com




FONTI E CREDITI :

   NOAA       Earth
Advisory